createdAt,value
2018-08-20T00:00:49.832Z,20.60
2018-08-20T00:03:18.246Z,20.50
2018-08-20T00:05:50.261Z,20.50
2018-08-20T00:08:18.765Z,20.50
2018-08-20T00:10:47.161Z,20.50
2018-08-20T00:13:15.632Z,20.50
2018-08-20T00:15:44.035Z,20.50
2018-08-20T00:18:17.864Z,20.50
2018-08-20T00:20:47.164Z,20.50
2018-08-20T00:23:15.564Z,20.40
2018-08-20T00:25:44.272Z,20.40
2018-08-20T00:28:12.635Z,20.30
2018-08-20T00:30:42.676Z,20.30
2018-08-20T00:33:11.176Z,20.30
2018-08-20T00:35:39.589Z,20.30
2018-08-20T00:38:08.317Z,20.30
2018-08-20T00:40:37.072Z,20.20
2018-08-20T00:43:05.636Z,20.20
2018-08-20T00:45:33.984Z,20.20
2018-08-20T00:48:02.673Z,20.10
2018-08-20T00:50:31.037Z,20.10
2018-08-20T00:52:59.460Z,20.10
2018-08-20T00:55:27.919Z,20.10
2018-08-20T00:57:56.376Z,20.00
2018-08-20T01:00:24.761Z,20.00
2018-08-20T01:02:53.174Z,20.00
2018-08-20T01:05:21.543Z,20.00
2018-08-20T01:07:50.045Z,20.00
2018-08-20T01:10:18.453Z,20.00
2018-08-20T01:12:47.488Z,20.00
2018-08-20T01:15:15.932Z,19.90
2018-08-20T01:17:44.313Z,20.00
2018-08-20T01:20:12.760Z,20.00
2018-08-20T01:22:41.465Z,20.00
2018-08-20T01:25:09.947Z,20.00
2018-08-20T01:27:38.360Z,20.00
2018-08-20T01:30:06.856Z,20.00
2018-08-20T01:32:35.317Z,20.00
2018-08-20T01:35:18.832Z,20.00
2018-08-20T01:37:47.663Z,20.00
2018-08-20T01:40:16.060Z,20.00
2018-08-20T01:42:44.471Z,19.90
2018-08-20T01:45:12.873Z,19.90
2018-08-20T01:47:41.248Z,19.90
2018-08-20T01:50:09.889Z,19.90
2018-08-20T01:52:38.282Z,19.90
2018-08-20T01:55:07.033Z,19.80
2018-08-20T01:57:35.401Z,19.80
2018-08-20T02:00:04.211Z,19.80
2018-08-20T02:02:32.861Z,19.80
2018-08-20T02:05:01.307Z,19.80
2018-08-20T02:07:29.717Z,19.80
2018-08-20T02:09:58.288Z,19.70
2018-08-20T02:12:26.679Z,19.60
2018-08-20T02:14:55.024Z,19.70
2018-08-20T02:17:23.498Z,19.60
2018-08-20T02:19:51.834Z,19.60
2018-08-20T02:22:20.242Z,19.60
2018-08-20T02:24:48.698Z,19.60
2018-08-20T02:27:17.792Z,19.50
2018-08-20T02:29:46.144Z,19.50
2018-08-20T02:32:14.568Z,19.50
2018-08-20T02:34:42.961Z,19.50
2018-08-20T02:37:11.342Z,19.50
2018-08-20T02:39:39.946Z,19.50
2018-08-20T02:42:08.360Z,19.50
2018-08-20T02:44:36.736Z,19.50
2018-08-20T02:47:05.649Z,19.50
2018-08-20T02:49:34.025Z,19.40
2018-08-20T02:52:02.385Z,19.50
2018-08-20T02:54:30.853Z,19.50
2018-08-20T02:56:59.559Z,19.50
2018-08-20T02:59:27.988Z,19.40
2018-08-20T03:01:56.368Z,19.40
2018-08-20T03:04:24.933Z,19.40
2018-08-20T03:06:53.315Z,19.40
2018-08-20T03:09:21.765Z,19.40
2018-08-20T03:11:50.431Z,19.40
2018-08-20T03:14:18.837Z,19.40
2018-08-20T03:16:48.047Z,19.40
2018-08-20T03:19:16.685Z,19.40
2018-08-20T03:21:45.053Z,19.40
2018-08-20T03:24:13.505Z,19.40
2018-08-20T03:26:42.292Z,19.30
2018-08-20T03:29:10.737Z,19.30
2018-08-20T03:31:39.125Z,19.30
2018-08-20T03:34:07.676Z,19.30
2018-08-20T03:36:36.193Z,19.30
2018-08-20T03:39:06.984Z,19.30
2018-08-20T03:41:35.421Z,19.30
2018-08-20T03:44:04.329Z,19.30
2018-08-20T03:46:32.770Z,19.30
2018-08-20T03:49:01.159Z,19.30
2018-08-20T03:51:29.595Z,19.30
2018-08-20T03:53:58.288Z,19.20
2018-08-20T03:56:26.685Z,19.20
2018-08-20T03:58:55.189Z,19.20
2018-08-20T04:01:24.669Z,19.20
2018-08-20T04:03:53.674Z,19.20
2018-08-20T04:06:22.077Z,19.20
2018-08-20T04:08:50.565Z,19.20
2018-08-20T04:11:19.272Z,19.20
2018-08-20T04:13:48.216Z,19.30
2018-08-20T04:16:16.621Z,19.30
2018-08-20T04:18:45.057Z,19.20
2018-08-20T04:21:13.445Z,19.20
2018-08-20T04:23:42.160Z,19.20
2018-08-20T04:26:10.589Z,19.20
2018-08-20T04:28:39.008Z,19.20
2018-08-20T04:31:07.677Z,19.30
2018-08-20T04:33:36.113Z,19.30
2018-08-20T04:36:04.485Z,19.30
2018-08-20T04:38:32.881Z,19.30
2018-08-20T04:41:01.518Z,19.30
2018-08-20T04:43:29.909Z,19.40
2018-08-20T04:45:58.306Z,19.40
2018-08-20T04:48:26.981Z,19.40
2018-08-20T04:50:55.403Z,19.40
2018-08-20T04:53:23.765Z,19.40
2018-08-20T04:55:52.357Z,19.40
2018-08-20T04:58:20.763Z,19.40
2018-08-20T05:00:49.147Z,19.40
2018-08-20T05:03:18.622Z,19.30
2018-08-20T05:05:47.256Z,19.30
2018-08-20T05:08:15.673Z,19.40
2018-08-20T05:10:44.122Z,19.40
2018-08-20T05:13:12.843Z,19.40
2018-08-20T05:15:41.236Z,19.30
2018-08-20T05:18:10.179Z,19.40
2018-08-20T05:20:38.828Z,19.40
2018-08-20T05:23:07.346Z,19.40
2018-08-20T05:25:35.788Z,19.50
2018-08-20T05:28:04.249Z,19.50
2018-08-20T05:30:32.623Z,19.50
2018-08-20T05:33:01.214Z,19.50
2018-08-20T05:35:29.721Z,19.50
2018-08-20T05:37:58.115Z,19.50
2018-08-20T05:40:26.877Z,19.60
2018-08-20T05:42:55.496Z,19.60
2018-08-20T05:45:23.830Z,19.60
2018-08-20T05:47:52.557Z,19.70
2018-08-20T05:50:20.914Z,19.70
2018-08-20T05:52:49.288Z,19.70
2018-08-20T06:00:15.621Z,19.70
2018-08-20T06:02:44.401Z,19.80
2018-08-20T06:05:12.829Z,19.80
2018-08-20T06:07:41.869Z,19.70
2018-08-20T06:10:10.681Z,19.80
2018-08-20T06:12:39.253Z,19.80
2018-08-20T06:15:12.335Z,19.80
2018-08-20T06:17:41.002Z,19.80
2018-08-20T06:20:12.830Z,19.90
2018-08-20T06:22:41.579Z,19.90
2018-08-20T06:25:11.261Z,19.80
2018-08-20T06:27:40.081Z,19.80
2018-08-20T06:30:11.262Z,19.90
2018-08-20T06:32:39.673Z,19.80
2018-08-20T06:35:09.353Z,19.80
2018-08-20T06:37:38.321Z,19.80
2018-08-20T06:40:08.852Z,19.70
2018-08-20T06:42:37.239Z,19.70
2018-08-20T06:45:07.333Z,19.70
2018-08-20T06:47:35.741Z,19.70
2018-08-20T06:50:04.565Z,19.70
2018-08-20T06:52:33.155Z,19.70
2018-08-20T06:55:01.513Z,19.60
2018-08-20T06:57:29.897Z,19.60
2018-08-20T06:59:58.633Z,19.70
2018-08-20T07:02:27.143Z,19.70
2018-08-20T07:04:55.492Z,19.70
2018-08-20T07:07:24.113Z,19.70
2018-08-20T07:09:52.474Z,19.80
2018-08-20T07:12:20.897Z,19.80
2018-08-20T07:14:49.505Z,19.90
2018-08-20T07:17:17.892Z,19.90
2018-08-20T07:19:46.273Z,20.00
2018-08-20T07:22:14.965Z,20.00
2018-08-20T07:24:43.348Z,20.10
2018-08-20T07:27:11.736Z,20.30
2018-08-20T07:29:42.444Z,20.50
2018-08-20T07:32:12.100Z,20.80
2018-08-20T07:34:45.005Z,21.00
2018-08-20T07:37:15.495Z,21.20
2018-08-20T07:39:45.381Z,21.40
2018-08-20T07:42:13.924Z,21.50
2018-08-20T07:44:43.229Z,21.60
2018-08-20T07:47:12.183Z,21.60
2018-08-20T07:49:40.608Z,21.70
2018-08-20T07:52:10.114Z,21.80
2018-08-20T07:54:39.542Z,21.90
2018-08-20T07:57:09.223Z,22.00
2018-08-20T07:59:37.817Z,22.00
2018-08-20T08:02:06.875Z,21.90
2018-08-20T08:04:35.330Z,21.80
2018-08-20T08:07:03.728Z,21.70
2018-08-20T08:09:32.518Z,21.70
2018-08-20T08:12:00.925Z,21.80
2018-08-20T08:14:29.313Z,21.80
2018-08-20T08:16:57.697Z,21.90
2018-08-20T08:19:26.149Z,21.80
2018-08-20T08:21:54.797Z,21.70
2018-08-20T08:24:23.240Z,21.70
2018-08-20T08:26:51.635Z,21.60
2018-08-20T08:29:20.214Z,21.50
2018-08-20T08:31:49.382Z,21.40
2018-08-20T08:34:17.842Z,21.30
2018-08-20T08:36:46.277Z,21.30
2018-08-20T08:39:15.049Z,21.30
2018-08-20T08:41:43.461Z,21.20
2018-08-20T08:44:11.918Z,21.10
2018-08-20T08:46:40.527Z,21.00
2018-08-20T08:49:08.966Z,21.00
2018-08-20T08:51:37.344Z,21.00
2018-08-20T08:54:06.100Z,21.10
2018-08-20T08:56:34.521Z,21.40
2018-08-20T08:59:02.954Z,21.70
2018-08-20T09:01:31.601Z,21.90
2018-08-20T09:03:59.940Z,21.90
2018-08-20T09:06:28.552Z,21.90
2018-08-20T09:08:56.982Z,21.70
2018-08-20T09:11:25.405Z,21.50
2018-08-20T09:13:54.037Z,21.40
2018-08-20T09:16:22.473Z,21.20
2018-08-20T09:18:50.929Z,21.10
2018-08-20T09:21:19.521Z,21.10
2018-08-20T09:23:48.021Z,21.10
2018-08-20T09:26:16.394Z,21.10
2018-08-20T09:28:44.873Z,21.30
2018-08-20T09:31:13.425Z,21.50
2018-08-20T09:33:41.806Z,21.80
2018-08-20T09:36:10.313Z,22.10
2018-08-20T09:38:38.900Z,22.30
2018-08-20T09:41:07.974Z,22.40
2018-08-20T09:43:36.336Z,22.40
2018-08-20T09:46:04.875Z,22.40
2018-08-20T09:48:33.506Z,22.30
2018-08-20T09:51:01.962Z,22.20
2018-08-20T09:53:30.463Z,22.10
2018-08-20T09:55:59.077Z,22.00
2018-08-20T09:58:27.448Z,21.90
2018-08-20T10:00:55.859Z,21.90
2018-08-20T10:03:24.560Z,21.90
2018-08-20T10:05:52.969Z,22.00
2018-08-20T10:08:21.528Z,22.10
2018-08-20T10:10:50.120Z,22.10
2018-08-20T10:13:18.586Z,22.20
2018-08-20T10:15:46.981Z,22.30
2018-08-20T10:18:15.703Z,22.30
2018-08-20T10:20:44.069Z,22.40
2018-08-20T10:23:12.462Z,22.40
2018-08-20T10:25:40.961Z,22.60
2018-08-20T10:28:09.682Z,22.70
2018-08-20T10:30:38.062Z,22.90
2018-08-20T10:33:06.448Z,23.00
2018-08-20T10:35:35.170Z,23.00
2018-08-20T10:38:03.616Z,23.00
2018-08-20T10:40:31.970Z,23.00
2018-08-20T10:43:00.637Z,22.90
2018-08-20T10:45:34.413Z,22.90
2018-08-20T10:48:03.046Z,22.80
2018-08-20T10:50:31.422Z,22.70
2018-08-20T10:52:59.929Z,22.70
2018-08-20T10:55:28.552Z,22.60
2018-08-20T10:57:56.981Z,22.50
2018-08-20T11:00:25.433Z,22.60
2018-08-20T11:02:53.981Z,22.60
2018-08-20T11:05:22.378Z,22.70
2018-08-20T11:07:50.793Z,22.80
2018-08-20T11:10:20.317Z,22.90
2018-08-20T11:12:48.681Z,22.70
2018-08-20T11:15:17.028Z,22.70
2018-08-20T11:17:45.676Z,22.70
2018-08-20T11:20:15.157Z,22.90
2018-08-20T11:22:43.673Z,23.00
2018-08-20T11:25:12.846Z,23.20
2018-08-20T11:27:41.324Z,23.40
2018-08-20T11:30:11.221Z,23.50
2018-08-20T11:32:39.829Z,23.70
2018-08-20T11:35:08.673Z,23.90
2018-08-20T11:37:37.084Z,23.90
2018-08-20T11:40:06.017Z,23.70
2018-08-20T11:42:34.422Z,23.50
2018-08-20T11:45:02.847Z,23.40
2018-08-20T11:49:56.857Z,23.30
2018-08-20T11:52:25.241Z,23.40
2018-08-20T11:54:54.052Z,23.40
2018-08-20T11:57:23.112Z,23.50
2018-08-20T11:59:51.500Z,23.60
2018-08-20T12:02:20.157Z,23.70
2018-08-20T12:04:48.702Z,23.90
2018-08-20T12:07:17.149Z,23.90
2018-08-20T12:09:45.465Z,23.90
2018-08-20T12:12:13.885Z,24.00
2018-08-20T12:14:42.346Z,24.00
2018-08-20T12:17:10.927Z,24.10
2018-08-20T12:19:39.301Z,24.20
2018-08-20T12:22:07.705Z,24.40
2018-08-20T12:24:36.378Z,24.60
2018-08-20T12:27:04.796Z,24.70
2018-08-20T12:29:33.221Z,24.60
2018-08-20T12:32:01.632Z,24.30
2018-08-20T12:34:30.062Z,24.00
2018-08-20T12:36:58.799Z,23.90
2018-08-20T12:39:27.215Z,23.90
2018-08-20T12:41:55.629Z,23.90
2018-08-20T12:44:24.218Z,23.80
2018-08-20T12:46:52.575Z,23.80
2018-08-20T12:49:20.933Z,23.70
2018-08-20T12:51:50.540Z,23.60
2018-08-20T12:54:18.913Z,23.60
2018-08-20T12:56:47.277Z,23.60
2018-08-20T12:59:15.869Z,23.60
2018-08-20T13:01:44.257Z,23.70
2018-08-20T13:04:12.730Z,23.80
2018-08-20T13:06:41.429Z,23.90
2018-08-20T13:09:09.845Z,24.10
2018-08-20T13:11:38.236Z,24.20
2018-08-20T13:14:06.822Z,24.30
2018-08-20T13:16:35.205Z,24.40
2018-08-20T13:19:03.631Z,24.50
2018-08-20T13:21:32.263Z,24.60
2018-08-20T13:24:00.694Z,24.50
2018-08-20T13:26:29.057Z,24.40
2018-08-20T13:28:57.769Z,24.20
2018-08-20T13:31:26.129Z,23.90
2018-08-20T13:33:54.557Z,23.80
2018-08-20T13:36:23.160Z,23.90
2018-08-20T13:38:51.525Z,24.00
2018-08-20T13:41:19.995Z,23.90
2018-08-20T13:43:48.625Z,23.90
2018-08-20T13:46:17.050Z,23.90
2018-08-20T13:48:45.419Z,23.90
2018-08-20T13:51:14.121Z,24.10
2018-08-20T13:53:42.524Z,24.20
2018-08-20T13:56:10.945Z,24.30
2018-08-20T13:58:39.597Z,24.30
2018-08-20T14:01:08.294Z,24.20
2018-08-20T14:03:36.797Z,24.10
2018-08-20T14:06:05.263Z,24.20
2018-08-20T14:08:33.934Z,24.10
2018-08-20T14:11:02.373Z,24.10
2018-08-20T14:13:30.839Z,24.00
2018-08-20T14:15:59.562Z,23.90
2018-08-20T14:18:27.926Z,23.80
2018-08-20T14:21:07.976Z,23.80
2018-08-20T14:23:36.681Z,23.80
2018-08-20T14:26:05.045Z,23.90
2018-08-20T14:28:33.701Z,24.00
2018-08-20T14:31:02.068Z,24.10
2018-08-20T14:33:30.455Z,24.10
2018-08-20T14:35:59.016Z,24.00
2018-08-20T14:38:27.457Z,23.90
2018-08-20T14:40:55.868Z,23.70
2018-08-20T14:43:24.309Z,23.60
2018-08-20T14:45:58.381Z,23.50
2018-08-20T14:48:27.003Z,23.40
2018-08-20T14:50:55.445Z,23.30
2018-08-20T14:53:24.019Z,23.20
2018-08-20T14:55:53.308Z,23.20
2018-08-20T14:58:22.116Z,23.30
2018-08-20T15:00:50.502Z,23.50
2018-08-20T15:03:18.950Z,23.60
2018-08-20T15:05:48.577Z,23.60
2018-08-20T15:08:16.926Z,23.60
2018-08-20T15:10:45.518Z,23.50
2018-08-20T15:13:14.153Z,23.60
2018-08-20T15:15:42.802Z,23.70
2018-08-20T15:18:11.114Z,23.60
2018-08-20T15:20:39.732Z,23.60
2018-08-20T15:23:08.222Z,23.50
2018-08-20T15:25:36.692Z,23.40
2018-08-20T15:28:05.412Z,23.40
2018-08-20T15:30:33.801Z,23.30
2018-08-20T15:33:02.191Z,23.20
2018-08-20T15:35:30.897Z,23.20
2018-08-20T15:37:59.282Z,23.20
2018-08-20T15:40:27.852Z,23.20
2018-08-20T15:42:56.322Z,23.20
2018-08-20T15:45:24.940Z,23.20
2018-08-20T15:47:53.831Z,23.20
2018-08-20T15:50:22.555Z,23.20
2018-08-20T15:52:51.058Z,23.20
2018-08-20T15:55:19.601Z,23.20
2018-08-20T15:57:48.070Z,23.20
2018-08-20T16:00:16.570Z,23.20
2018-08-20T16:02:45.558Z,23.10
2018-08-20T16:05:13.936Z,22.90
2018-08-20T16:07:42.285Z,22.90
2018-08-20T16:10:12.145Z,22.80
2018-08-20T16:12:40.869Z,22.80
2018-08-20T16:15:09.822Z,22.70
2018-08-20T16:17:38.594Z,22.60
2018-08-20T16:20:07.334Z,22.60
2018-08-20T16:22:35.905Z,22.50
2018-08-20T16:25:05.157Z,22.50
2018-08-20T16:27:33.574Z,22.40
2018-08-20T16:30:02.218Z,22.40
2018-08-20T16:32:31.057Z,22.30
2018-08-20T16:34:59.457Z,22.30
2018-08-20T16:37:27.893Z,22.30
2018-08-20T16:39:56.329Z,22.20
2018-08-20T16:42:25.029Z,22.20
2018-08-20T16:44:54.241Z,22.20
2018-08-20T16:47:22.643Z,22.10
2018-08-20T16:49:51.450Z,22.20
2018-08-20T16:52:19.920Z,22.10
2018-08-20T16:54:48.412Z,22.10
2018-08-20T16:57:16.982Z,22.00
2018-08-20T16:59:45.450Z,21.90
2018-08-20T17:02:21.889Z,21.80
2018-08-20T17:04:50.320Z,21.80
2018-08-20T17:07:18.777Z,21.70
2018-08-20T17:09:47.335Z,21.60
2018-08-20T17:12:15.741Z,21.60
2018-08-20T17:14:44.282Z,21.60
2018-08-20T17:17:12.734Z,21.50
2018-08-20T17:19:44.124Z,21.50
2018-08-20T17:22:12.588Z,21.50
2018-08-20T17:24:41.442Z,21.50
2018-08-20T17:27:11.593Z,21.50
2018-08-20T17:29:40.200Z,21.40
2018-08-20T17:32:09.458Z,21.30
2018-08-20T17:34:40.020Z,21.30
2018-08-20T17:37:08.661Z,22.00
2018-08-20T17:39:53.040Z,21.30
2018-08-20T17:42:21.526Z,21.30
2018-08-20T17:44:50.021Z,21.30
2018-08-20T17:47:25.642Z,21.20
2018-08-20T17:49:55.517Z,21.10
2018-08-20T17:52:29.841Z,21.10
2018-08-20T17:55:00.521Z,21.10
2018-08-20T17:57:29.097Z,21.00
2018-08-20T18:00:24.398Z,21.00
2018-08-20T18:02:52.981Z,21.00
2018-08-20T18:05:23.273Z,21.00
2018-08-20T18:07:52.033Z,20.90
2018-08-20T18:10:20.489Z,20.90
2018-08-20T18:12:49.242Z,20.90
2018-08-20T18:15:17.741Z,20.90
2018-08-20T18:17:46.451Z,20.80
2018-08-20T18:20:15.108Z,20.70
2018-08-20T18:22:43.575Z,20.70
2018-08-20T18:25:11.981Z,20.60
2018-08-20T18:27:43.091Z,20.60
2018-08-20T18:30:12.504Z,20.60
2018-08-20T18:32:41.493Z,20.50
2018-08-20T18:35:10.478Z,20.50
2018-08-20T18:37:45.276Z,20.40
2018-08-20T18:40:14.006Z,20.30
2018-08-20T18:42:46.368Z,20.30
2018-08-20T18:45:14.846Z,20.20
2018-08-20T18:47:43.357Z,20.10
2018-08-20T18:50:12.922Z,20.10
2018-08-20T18:52:41.650Z,20.10
2018-08-20T18:55:10.053Z,20.00
2018-08-20T18:57:39.087Z,19.90
2018-08-20T19:00:13.113Z,19.90
2018-08-20T19:02:49.637Z,19.80
2018-08-20T19:05:18.693Z,19.80
2018-08-20T19:07:47.378Z,19.70
2018-08-20T19:10:27.289Z,19.70
2018-08-20T19:12:55.673Z,19.70
2018-08-20T19:15:30.945Z,19.60
2018-08-20T19:17:59.478Z,19.50
2018-08-20T19:20:27.821Z,19.50
2018-08-20T19:22:56.457Z,19.40
2018-08-20T19:25:25.533Z,19.40
2018-08-20T19:27:53.949Z,19.40
2018-08-20T19:30:23.930Z,19.40
2018-08-20T19:32:52.377Z,19.30
2018-08-20T19:35:20.849Z,19.30
2018-08-20T19:37:49.545Z,19.20
2018-08-20T19:40:18.038Z,19.20
2018-08-20T19:42:46.446Z,19.10
2018-08-20T19:45:14.889Z,19.10
2018-08-20T19:47:43.285Z,19.10
2018-08-20T19:50:12.468Z,19.00
2018-08-20T19:52:40.817Z,19.00
2018-08-20T19:55:11.126Z,18.90
2018-08-20T19:57:39.727Z,18.90
2018-08-20T20:00:10.855Z,18.70
2018-08-20T20:02:41.488Z,18.70
2018-08-20T20:05:11.987Z,18.70
2018-08-20T20:07:45.233Z,18.60
2018-08-20T20:10:14.125Z,18.60
2018-08-20T20:12:48.202Z,18.50
2018-08-20T20:15:16.565Z,18.50
2018-08-20T20:17:44.961Z,18.40
2018-08-20T20:20:13.577Z,18.40
2018-08-20T20:22:41.952Z,18.40
2018-08-20T20:25:10.371Z,18.30
2018-08-20T20:27:39.158Z,18.30
2018-08-20T20:30:08.054Z,18.20
2018-08-20T20:32:36.489Z,18.20
2018-08-20T20:35:08.673Z,18.10
2018-08-20T20:37:37.087Z,18.10
2018-08-20T20:40:05.812Z,18.10
2018-08-20T20:42:34.405Z,18.00
2018-08-20T20:45:02.785Z,18.00
2018-08-20T20:47:31.198Z,17.90
2018-08-20T20:49:59.812Z,17.90
2018-08-20T20:52:28.235Z,17.90
2018-08-20T20:54:56.593Z,17.80
2018-08-20T20:57:26.316Z,17.80
2018-08-20T20:59:54.733Z,17.70
2018-08-20T21:02:23.113Z,17.70
2018-08-20T21:04:51.685Z,17.70
2018-08-20T21:07:26.469Z,18.00
2018-08-20T21:09:55.129Z,17.70
2018-08-20T21:12:23.533Z,17.70
2018-08-20T21:14:51.880Z,17.60
2018-08-20T21:17:20.609Z,17.60
2018-08-20T21:19:49.164Z,17.60
2018-08-20T21:22:17.427Z,17.60
2018-08-20T21:24:46.109Z,17.60
2018-08-20T21:27:18.728Z,17.50
2018-08-20T21:29:47.163Z,17.50
2018-08-20T21:32:15.544Z,17.50
2018-08-20T21:34:43.958Z,17.40
2018-08-20T21:37:12.549Z,17.40
2018-08-20T21:39:40.935Z,17.40
2018-08-20T21:42:09.339Z,17.30
2018-08-20T21:44:37.976Z,17.30
2018-08-20T21:47:17.580Z,17.30
2018-08-20T21:49:46.277Z,17.30
2018-08-20T21:52:14.636Z,17.20
2018-08-20T21:54:43.012Z,17.20
2018-08-20T21:57:11.657Z,17.10
2018-08-20T21:59:45.763Z,17.10
2018-08-20T22:02:14.169Z,17.00
2018-08-20T22:04:42.587Z,16.90
2018-08-20T22:07:10.997Z,16.90
2018-08-20T22:09:39.552Z,17.00
2018-08-20T22:12:07.944Z,16.90
2018-08-20T22:14:36.333Z,16.90
2018-08-20T22:17:04.981Z,16.90
2018-08-20T22:19:33.407Z,16.80
2018-08-20T22:22:02.129Z,16.80
2018-08-20T22:24:30.592Z,16.80
2018-08-20T22:26:59.461Z,16.80
2018-08-20T22:29:34.900Z,16.80
2018-08-20T22:32:05.016Z,16.80
2018-08-20T22:34:33.452Z,16.80
2018-08-20T22:37:06.885Z,16.80
2018-08-20T22:39:35.529Z,16.80
2018-08-20T22:42:03.970Z,16.80
2018-08-20T22:44:32.331Z,16.70
2018-08-20T22:47:00.885Z,16.70
2018-08-20T22:49:29.275Z,16.70
2018-08-20T22:51:57.669Z,16.70
2018-08-20T22:54:26.561Z,16.70
2018-08-20T22:56:54.941Z,16.70
2018-08-20T22:59:23.301Z,16.70
2018-08-20T23:01:51.942Z,16.70
2018-08-20T23:04:20.373Z,16.70
2018-08-20T23:06:48.748Z,16.70
2018-08-20T23:09:27.657Z,16.80
2018-08-20T23:11:56.490Z,16.80
2018-08-20T23:14:24.889Z,16.80
2018-08-20T23:16:53.765Z,16.80
2018-08-20T23:19:22.140Z,16.90
2018-08-20T23:21:53.262Z,16.90
2018-08-20T23:24:21.677Z,16.90
2018-08-20T23:26:50.085Z,16.90
2018-08-20T23:29:18.477Z,16.90
2018-08-20T23:31:47.065Z,17.00
2018-08-20T23:34:16.012Z,17.00
2018-08-20T23:36:44.517Z,17.00
2018-08-20T23:39:15.208Z,17.00
2018-08-20T23:41:43.670Z,17.00
2018-08-20T23:44:15.045Z,17.00
2018-08-20T23:46:45.282Z,17.10
2018-08-20T23:49:13.770Z,17.10
2018-08-20T23:51:42.485Z,17.10
2018-08-20T23:54:11.666Z,17.10
2018-08-20T23:56:40.260Z,17.10
2018-08-20T23:59:09.029Z,17.10
